Terminal Aerodrome Forecast
Issued by NWS Charleston, WV

Home | Current Version | Previous Version | Text Only | Print | Product List | Glossary On
Versions: 1 2 3 4 5 6 7 8 9 10 11 12 13 14 15 16 17 18 19 20 21 22 23 24 25
792
FTUS41 KRLX 260521
TAFBKW
TAF
KBKW 260521Z 2606/2706 32007KT P6SM SCT010
      TEMPO 2608/2611 4SM BR BKN010
     FM261100 35003KT 2SM BR BKN003
     FM261300 34003KT P6SM SCT025
     FM261900 00000KT P6SM BKN060
     FM270000 35004KT P6SM OVC025
     FM270300 07003KT P6SM OVC050=

USA.gov is the U.S. government's official web portal to all federal, state and local government web resources and services.